Time;durP1;ratioP1;P1;durP2;ratioP2;P2;SDS_P1;SDS_P2;PMS_P1;PMS_P2;Temp;Humidity;BMP_temperature;BMP_pressure;BME280_temperature;BME280_humidity;BME280_pressure;Samples;Min_cycle;Max_cycle;Signal;HPM_P1;HPM_P2
2022/05/26 00:00:50;;;;;;;7.85;1.20;;;;;;;18.91;41.40;100960.22;4213600;28;20127;-75
2022/05/26 00:02:54;;;;;;;3.13;0.50;;;;;;;18.98;41.17;100961.91;4215469;28;20043;-75
2022/05/26 00:04:58;;;;;;;1.15;0.70;;;;;;;18.97;41.12;100965.44;4216932;28;20044;-75
2022/05/26 00:07:01;;;;;;;2.97;0.93;;;;;;;18.91;42.60;100961.13;4216899;28;20499;-75
2022/05/26 00:09:05;;;;;;;4.10;1.02;;;;;;;18.89;42.59;100960.25;4216854;28;20490;-75
2022/05/26 00:11:10;;;;;;;1.75;0.65;;;;;;;18.90;43.51;100958.50;4216902;28;20036;-75
2022/05/26 00:13:13;;;;;;;3.83;0.63;;;;;;;18.88;43.24;100958.53;4215275;28;20135;-75
2022/05/26 00:15:16;;;;;;;4.13;0.75;;;;;;;18.90;42.79;100953.25;4216659;28;20394;-75
2022/05/26 00:17:20;;;;;;;2.42;1.00;;;;;;;18.90;42.72;100962.00;4216760;28;20109;-75
2022/05/26 00:19:23;;;;;;;2.45;0.82;;;;;;;18.90;43.21;100969.91;4216795;28;20042;-75
2022/05/26 00:21:27;;;;;;;3.30;0.73;;;;;;;18.90;43.37;100961.13;4216674;28;20486;-75
2022/05/26 00:23:30;;;;;;;5.35;0.90;;;;;;;18.86;43.10;100956.75;4198392;28;20040;-75
2022/05/26 00:25:33;;;;;;;4.13;1.10;;;;;;;18.85;43.43;100961.13;4215481;28;20064;-75
2022/05/26 00:27:36;;;;;;;6.03;1.10;;;;;;;18.86;43.51;100962.03;4215378;28;20044;-75
2022/05/26 00:29:40;;;;;;;4.72;1.10;;;;;;;18.80;43.70;100963.84;4215422;28;20050;-75
2022/05/26 00:31:43;;;;;;;3.03;0.90;;;;;;;18.77;43.71;100968.28;4216288;28;20094;-75
2022/05/26 00:33:46;;;;;;;6.18;1.05;;;;;;;18.76;43.87;100971.78;4216528;28;20113;-75
2022/05/26 00:35:49;;;;;;;4.05;1.00;;;;;;;18.75;43.96;100978.84;4216393;28;20418;-75
2022/05/26 00:37:55;;;;;;;3.83;0.88;;;;;;;18.73;44.64;100983.22;4215301;28;20055;-75
2022/05/26 00:39:58;;;;;;;3.85;1.23;;;;;;;18.71;44.44;100985.03;4216451;28;20036;-75
2022/05/26 00:42:04;;;;;;;10.13;0.80;;;;;;;18.71;44.67;100979.75;4216092;28;20074;-75
2022/05/26 00:44:07;;;;;;;4.35;0.82;;;;;;;18.69;44.17;100984.19;4215093;28;20106;-75
2022/05/26 00:46:20;;;;;;;2.33;0.70;;;;;;;18.66;44.08;100981.53;4216297;28;20033;-75
2022/05/26 00:48:26;;;;;;;4.03;0.95;;;;;;;18.64;44.59;100991.25;4215136;28;20040;-75
2022/05/26 00:50:32;;;;;;;3.47;0.98;;;;;;;18.58;44.89;100983.41;4214925;28;20134;-75
2022/05/26 00:52:45;;;;;;;2.40;0.70;;;;;;;18.57;44.48;100981.66;4215891;28;20117;-75
2022/05/26 00:54:53;;;;;;;3.40;0.85;;;;;;;18.56;44.93;100990.44;4216268;28;20044;-76
2022/05/26 00:57:01;;;;;;;3.95;0.90;;;;;;;18.55;44.92;100994.84;4214948;28;20038;-75
2022/05/26 00:59:12;;;;;;;3.97;0.82;;;;;;;18.47;44.78;100987.03;4216124;28;20036;-75
2022/05/26 01:01:16;;;;;;;1.52;0.70;;;;;;;18.44;45.33;100979.16;4214852;28;20040;-76
2022/05/26 01:03:27;;;;;;;2.63;0.60;;;;;;;18.44;45.45;100984.44;4215774;28;20043;-76
2022/05/26 01:05:37;;;;;;;2.95;0.80;;;;;;;18.42;45.50;100993.22;4214720;28;20138;-76
2022/05/26 01:07:40;;;;;;;1.90;0.82;;;;;;;18.40;46.02;100987.09;4215992;28;20128;-76
2022/05/26 01:09:43;;;;;;;2.30;0.50;;;;;;;18.37;46.10;100990.63;4215937;28;20486;-76
2022/05/26 01:11:54;;;;;;;1.52;0.70;;;;;;;18.35;45.87;100992.41;4215754;28;20051;-75
2022/05/26 01:14:03;;;;;;;0.77;0.52;;;;;;;18.31;46.13;100988.03;4214168;28;20035;-75
2022/05/26 01:16:13;;;;;;;3.83;0.85;;;;;;;18.32;46.10;100992.44;4215792;28;20570;-75
2022/05/26 01:18:28;;;;;;;1.33;0.65;;;;;;;18.30;45.96;100989.81;4214575;28;20050;-75
2022/05/26 01:20:52;;;;;;;0.85;0.52;;;;;;;18.25;45.96;100988.09;4215790;28;20047;-75
2022/05/26 01:24:00;;;;;;;4.05;0.90;;;;;;;18.11;46.22;100991.75;4214197;28;20051;-75
2022/05/26 01:26:29;;;;;;;2.72;0.95;;;;;;;18.09;46.26;100985.63;4215754;28;20055;-75
2022/05/26 01:28:53;;;;;;;0.65;0.45;;;;;;;18.07;46.11;100983.88;4215649;28;20135;-75
2022/05/26 01:31:11;;;;;;;2.78;0.75;;;;;;;18.08;46.31;100981.25;4214418;28;20526;-75
2022/05/26 01:33:41;;;;;;;3.00;0.65;;;;;;;18.13;46.32;100982.06;4214027;28;20274;-75
2022/05/26 01:35:57;;;;;;;2.70;1.08;;;;;;;18.10;46.23;100983.84;4215454;28;20518;-75
2022/05/26 01:38:15;;;;;;;1.55;0.70;;;;;;;18.06;46.17;100985.66;4215468;28;20078;-75
2022/05/26 01:40:28;;;;;;;4.13;1.08;;;;;;;18.04;46.50;100991.81;4215495;28;20403;-77
2022/05/26 01:42:39;;;;;;;2.20;1.17;;;;;;;18.02;46.99;100986.56;4215107;28;20076;-75
2022/05/26 01:44:51;;;;;;;2.30;0.80;;;;;;;18.07;46.50;100990.00;4214019;28;20182;-74
2022/05/26 01:46:59;;;;;;;2.35;0.50;;;;;;;18.07;46.32;100984.75;4215428;28;20403;-74
2022/05/26 01:49:12;;;;;;;2.47;0.50;;;;;;;18.08;46.21;100985.63;4215320;28;20407;-74
2022/05/26 01:51:20;;;;;;;2.58;0.75;;;;;;;18.05;46.47;100977.78;4213829;28;20055;-75
2022/05/26 01:53:28;;;;;;;2.03;0.60;;;;;;;18.01;46.68;100979.53;4197025;28;20048;-75
2022/05/26 01:55:41;;;;;;;3.72;0.60;;;;;;;17.94;46.58;100989.22;4215284;28;20241;-74
2022/05/26 01:57:50;;;;;;;0.73;0.55;;;;;;;17.91;46.79;100985.75;4213817;28;20044;-74
2022/05/26 01:59:56;;;;;;;1.17;0.60;;;;;;;17.95;46.75;100987.50;4213986;28;20054;-74
2022/05/26 02:02:04;;;;;;;1.42;0.60;;;;;;;17.94;46.77;100989.22;4214981;28;20032;-75
2022/05/26 02:04:13;;;;;;;4.15;0.57;;;;;;;17.98;46.56;100994.50;4215013;28;20051;-75
2022/05/26 02:06:22;;;;;;;0.70;0.47;;;;;;;17.95;46.89;100992.75;4215001;28;20185;-75
2022/05/26 02:08:32;;;;;;;1.80;0.60;;;;;;;17.96;47.26;100995.38;4213714;28;20036;-74
2022/05/26 02:10:38;;;;;;;0.93;0.45;;;;;;;17.92;46.91;100991.00;4213765;28;20028;-74
2022/05/26 02:12:45;;;;;;;3.92;0.85;;;;;;;17.85;46.84;100989.28;4213271;28;20048;-75
2022/05/26 02:14:54;;;;;;;5.07;0.90;;;;;;;17.94;47.02;101006.78;4214867;28;20127;-75
2022/05/26 02:17:05;;;;;;;2.75;0.70;;;;;;;17.93;46.98;100999.75;4214793;28;20043;-75
2022/05/26 02:19:11;;;;;;;2.67;0.80;;;;;;;17.90;47.01;100992.78;4196793;28;20132;-75
2022/05/26 02:21:21;;;;;;;2.72;0.70;;;;;;;17.94;47.50;100989.22;4213557;28;20042;-74
2022/05/26 02:23:32;;;;;;;2.28;0.77;;;;;;;17.93;47.25;100989.25;4196471;28;20040;-75
2022/05/26 02:25:35;;;;;;;2.35;0.73;;;;;;;17.90;47.06;100994.53;4213931;28;20070;-74
2022/05/26 02:27:39;;;;;;;3.28;0.93;;;;;;;17.78;47.10;100992.84;4213617;28;20308;-74
2022/05/26 02:29:54;;;;;;;5.45;0.88;;;;;;;17.70;46.89;100990.25;4213348;28;20606;-75
2022/05/26 02:31:58;;;;;;;2.58;0.90;;;;;;;17.63;46.99;100985.94;4214280;28;20032;-75
2022/05/26 02:34:05;;;;;;;6.00;1.40;;;;;;;17.67;46.85;100987.66;4214660;28;20040;-74
2022/05/26 02:36:08;;;;;;;6.85;1.05;;;;;;;17.77;46.66;100988.44;4214646;28;20123;-74
2022/05/26 02:38:14;;;;;;;9.32;1.55;;;;;;;17.79;46.39;100984.94;4213240;28;20044;-73
2022/05/26 02:40:17;;;;;;;2.75;0.98;;;;;;;17.75;46.04;100991.09;4213268;28;20511;-74
2022/05/26 02:42:24;;;;;;;3.58;1.10;;;;;;;17.75;46.24;100998.97;4213994;28;20044;-74
2022/05/26 02:44:31;;;;;;;2.63;0.98;;;;;;;17.67;46.14;100985.03;4214538;28;20090;-74
2022/05/26 02:46:50;;;;;;;3.05;0.77;;;;;;;17.77;46.12;100989.34;4213286;28;20046;-74
2022/05/26 02:49:13;;;;;;;7.03;0.90;;;;;;;17.73;45.79;100987.63;4196367;28;20054;-75
2022/05/26 02:51:22;;;;;;;2.33;0.77;;;;;;;17.69;45.95;100990.28;4213114;28;20040;-74
2022/05/26 02:53:32;;;;;;;5.60;1.00;;;;;;;17.65;46.16;100988.53;4214065;28;20079;-74
2022/05/26 02:55:49;;;;;;;6.93;1.15;;;;;;;17.68;46.11;100993.78;4213158;28;20047;-74
2022/05/26 02:58:03;;;;;;;5.15;1.25;;;;;;;17.66;46.30;100996.41;4214190;28;20075;-74
2022/05/26 03:00:09;;;;;;;3.47;1.05;;;;;;;17.57;46.41;100997.34;4214529;28;20039;-74
2022/05/26 03:02:16;;;;;;;5.18;1.20;;;;;;;17.57;46.72;101002.63;4212657;28;20036;-74
2022/05/26 03:04:26;;;;;;;6.78;1.05;;;;;;;17.56;46.96;101000.00;4214237;28;20040;-74
2022/05/26 03:06:34;;;;;;;4.50;1.40;;;;;;;17.51;47.26;101000.03;4214212;28;20123;-74
2022/05/26 03:08:39;;;;;;;5.28;0.98;;;;;;;17.57;47.05;100992.09;4214156;28;20047;-75
2022/05/26 03:10:48;;;;;;;1.75;0.60;;;;;;;17.57;46.67;100992.09;4214109;28;20063;-75
2022/05/26 03:12:54;;;;;;;2.20;0.77;;;;;;;17.52;46.87;101000.88;4212486;28;20036;-75
2022/05/26 03:14:56;;;;;;;6.07;1.95;;;;;;;17.55;47.23;101003.50;4214162;28;20048;-75
2022/05/26 03:16:59;;;;;;;3.67;1.05;;;;;;;17.53;47.10;100994.75;4212692;28;20438;-75
2022/05/26 03:19:02;;;;;;;5.57;0.85;;;;;;;17.56;47.16;101003.47;4212716;28;20135;-75
2022/05/26 03:21:08;;;;;;;5.78;1.20;;;;;;;17.57;47.25;101001.75;4213985;28;20466;-75
2022/05/26 03:23:10;;;;;;;2.97;1.13;;;;;;;17.57;47.43;100996.50;4212383;28;20134;-76
2022/05/26 03:25:13;;;;;;;3.67;1.15;;;;;;;17.56;47.49;101013.13;4213958;28;20066;-76
2022/05/26 03:27:16;;;;;;;1.88;1.05;;;;;;;17.56;47.64;101005.25;4214047;28;20044;-76
2022/05/26 03:29:19;;;;;;;5.43;1.00;;;;;;;17.54;47.60;101013.16;4212661;28;20040;-76
2022/05/26 03:31:26;;;;;;;2.45;1.00;;;;;;;17.43;47.57;101010.59;4213806;28;20052;-75
2022/05/26 03:40:45;;;;;;;1.38;0.70;;;;;;;17.33;47.86;101014.13;4213616;28;20040;-75
2022/05/26 03:40:47;;;;;;;3.78;0.90;;;;;;;17.14;48.54;101020.34;4213673;28;20127;-75
2022/05/26 03:42:50;;;;;;;7.20;1.10;;;;;;;17.07;48.73;101015.13;4213433;28;20036;-75
2022/05/26 03:44:54;;;;;;;4.90;0.85;;;;;;;17.10;48.93;101019.50;4212437;28;20036;-75
2022/05/26 03:46:57;;;;;;;2.78;0.98;;;;;;;17.05;48.88;101024.75;4213784;28;20044;-75
2022/05/26 03:49:00;;;;;;;3.60;0.95;;;;;;;17.08;48.99;101016.88;4212454;28;20063;-75
2022/05/26 03:51:04;;;;;;;4.45;1.08;;;;;;;17.12;49.05;101020.34;4212282;28;20046;-75
2022/05/26 03:53:07;;;;;;;3.35;1.02;;;;;;;17.08;49.15;101011.63;4213300;28;20036;-75
2022/05/26 03:55:11;;;;;;;2.97;1.30;;;;;;;17.14;49.27;101013.31;4212350;28;20123;-75
2022/05/26 03:57:14;;;;;;;;;;;;;;;16.97;49.62;101020.41;4214067;28;20039;-75
2022/05/26 03:59:18;;;;;;;3.35;0.90;;;;;;;17.02;49.68;101030.00;4213548;28;19959;-75
2022/05/26 04:01:21;;;;;;;7.32;1.30;;;;;;;17.02;49.84;101030.00;4213557;28;20407;-75
2022/05/26 04:03:24;;;;;;;6.57;1.23;;;;;;;16.98;50.10;101035.28;4213481;28;20032;-76
2022/05/26 04:05:27;;;;;;;6.70;1.25;;;;;;;17.06;50.19;101037.00;4212326;28;20115;-75
2022/05/26 04:07:30;;;;;;;6.18;1.23;;;;;;;17.05;49.92;101039.66;4213620;28;20456;-75
2022/05/26 04:09:33;;;;;;;5.20;2.78;;;;;;;17.02;50.39;101040.53;4213534;28;20135;-75
2022/05/26 04:11:37;;;;;;;6.18;1.00;;;;;;;17.04;50.28;101043.13;4213356;28;20449;-75
2022/05/26 04:13:40;;;;;;;5.07;1.08;;;;;;;17.01;50.11;101043.16;4213283;28;20130;-75
2022/05/26 04:15:43;;;;;;;7.82;1.20;;;;;;;17.00;50.65;101047.53;4213397;28;20560;-75
2022/05/26 04:17:46;;;;;;;3.50;0.88;;;;;;;17.01;50.31;101049.31;4212180;28;20050;-75
2022/05/26 04:19:49;;;;;;;4.88;1.20;;;;;;;17.07;50.65;101051.91;4213392;28;20047;-75
2022/05/26 04:24:13;;;;;;;5.50;1.88;;;;;;;17.19;50.36;101050.13;4213436;28;20043;-75
2022/05/26 04:26:16;;;;;;;5.28;0.85;;;;;;;17.28;50.24;101057.97;4213337;28;20044;-75
2022/05/26 04:28:21;;;;;;;5.18;0.90;;;;;;;17.27;50.85;101053.56;4213426;28;20044;-75
2022/05/26 04:30:25;;;;;;;6.20;1.13;;;;;;;17.32;51.11;101054.44;4213312;28;20066;-75
2022/05/26 04:32:28;;;;;;;4.47;0.70;;;;;;;17.30;51.57;101061.44;4213001;28;20097;-75
2022/05/26 04:34:31;;;;;;;4.22;1.30;;;;;;;17.34;51.07;101059.69;4212019;28;20051;-75
2022/05/26 04:36:34;;;;;;;5.10;0.90;;;;;;;17.34;51.38;101076.31;4213268;28;20043;-75
2022/05/26 04:38:37;;;;;;;5.85;0.95;;;;;;;17.36;51.93;101073.69;4211999;28;20055;-74
2022/05/26 04:40:40;;;;;;;5.82;1.48;;;;;;;17.37;51.05;101073.69;4212190;28;20144;-75
2022/05/26 04:42:42;;;;;;;3.08;0.95;;;;;;;17.30;51.58;101081.59;4211682;28;20036;-75
2022/05/26 04:44:47;;;;;;;5.32;1.00;;;;;;;17.26;51.70;101075.50;4213258;28;20040;-75
2022/05/26 04:46:50;;;;;;;3.40;1.20;;;;;;;17.21;51.49;101083.38;4213200;28;20500;-75
2022/05/26 04:48:53;;;;;;;4.10;0.90;;;;;;;17.19;52.28;101079.03;4215176;28;20053;-75
2022/05/26 04:50:56;;;;;;;4.50;0.98;;;;;;;17.22;52.07;101081.63;4214997;28;20316;-75
2022/05/26 04:52:59;;;;;;;5.95;1.10;;;;;;;17.24;51.75;101072.88;4214703;28;20086;-74
2022/05/26 04:55:01;;;;;;;8.70;0.98;;;;;;;17.21;51.84;101078.13;4216173;28;20055;-74
2022/05/26 04:57:06;;;;;;;3.15;0.73;;;;;;;17.17;51.50;101078.13;4214945;28;20040;-74
2022/05/26 04:59:09;;;;;;;6.47;1.52;;;;;;;17.14;51.32;101080.78;4216043;28;20073;-74
2022/05/26 05:01:14;;;;;;;5.50;0.90;;;;;;;17.16;51.31;101084.28;4214885;28;20090;-74
2022/05/26 05:03:17;;;;;;;3.97;0.85;;;;;;;17.18;51.21;101093.03;4215614;28;20557;-74
2022/05/26 05:05:20;;;;;;;2.92;0.68;;;;;;;17.19;51.29;101087.78;4216023;28;20136;-74
2022/05/26 05:07:23;;;;;;;3.20;0.77;;;;;;;17.16;51.07;101089.53;4216018;28;20043;-74
2022/05/26 05:09:26;;;;;;;3.50;0.70;;;;;;;17.11;51.30;101086.91;4215997;28;20040;-74
2022/05/26 05:11:29;;;;;;;1.85;0.80;;;;;;;17.08;51.44;101095.69;4215840;28;20036;-74
2022/05/26 05:13:33;;;;;;;1.98;0.82;;;;;;;17.12;51.67;101100.94;4214396;28;20093;-75
2022/05/26 05:15:40;;;;;;;2.17;0.75;;;;;;;17.06;51.65;101101.81;4215870;28;20054;-75
2022/05/26 05:17:44;;;;;;;5.07;1.23;;;;;;;17.06;52.11;101110.56;4215939;28;20039;-74
2022/05/26 05:19:48;;;;;;;5.47;0.90;;;;;;;17.10;52.35;101111.44;4214546;28;20086;-74
2022/05/26 05:21:56;;;;;;;7.63;1.40;;;;;;;17.16;52.10;101111.44;4215407;28;20043;-74
2022/05/26 05:24:04;;;;;;;4.20;1.00;;;;;;;17.19;52.06;101123.69;4214823;28;20036;-75
2022/05/26 05:26:10;;;;;;;3.55;0.88;;;;;;;17.19;52.31;101121.06;4215684;28;20055;-74
2022/05/26 05:28:17;;;;;;;2.55;1.00;;;;;;;17.16;52.69;101126.31;4215720;28;20047;-75
2022/05/26 05:30:23;;;;;;;4.25;0.70;;;;;;;17.13;52.41;101126.31;4215698;28;20047;-74
2022/05/26 05:32:35;;;;;;;5.68;1.27;;;;;;;17.20;52.29;101125.41;4197263;28;20058;-74
2022/05/26 05:34:44;;;;;;;9.95;1.40;;;;;;;17.19;52.02;101135.06;4214424;28;20040;-74
2022/05/26 05:36:48;;;;;;;7.00;1.20;;;;;;;17.17;52.22;101138.56;4214317;28;20040;-74
2022/05/26 05:38:52;;;;;;;3.03;0.95;;;;;;;17.16;52.10;101137.69;4215410;28;20459;-75
2022/05/26 05:40:55;;;;;;;3.58;1.10;;;;;;;17.22;51.80;101148.19;4214278;28;20082;-75
2022/05/26 05:42:58;;;;;;;3.30;1.15;;;;;;;17.25;51.59;101145.56;4215517;28;20074;-74
2022/05/26 05:45:01;;;;;;;1.52;0.90;;;;;;;17.25;51.76;101148.19;4214336;28;20419;-75
2022/05/26 05:47:05;;;;;;;2.50;0.93;;;;;;;17.27;51.85;101149.06;4215479;28;20510;-74
2022/05/26 05:49:08;;;;;;;1.42;0.70;;;;;;;17.37;51.92;101146.41;4215353;28;20040;-74
2022/05/26 05:51:12;;;;;;;2.22;0.80;;;;;;;17.50;51.59;101148.13;4215353;28;20032;-74
2022/05/26 05:53:16;;;;;;;4.35;1.05;;;;;;;17.43;51.76;101147.28;4214955;28;20040;-75
2022/05/26 05:55:19;;;;;;;2.47;1.00;;;;;;;17.57;51.46;101149.84;4215167;28;20040;-74
2022/05/26 05:57:22;;;;;;;5.43;1.00;;;;;;;17.61;51.36;101150.72;4215168;28;20152;-74
2022/05/26 05:59:25;;;;;;;3.00;0.85;;;;;;;17.51;51.43;101146.34;4215403;28;20471;-74
2022/05/26 06:01:27;;;;;;;1.48;0.65;;;;;;;17.48;51.64;101152.50;4215069;28;20054;-74
2022/05/26 06:03:32;;;;;;;2.38;0.70;;;;;;;17.52;51.98;101145.47;4214784;28;20038;-74
2022/05/26 06:05:36;;;;;;;3.40;1.02;;;;;;;17.59;52.26;101145.44;4215242;28;20040;-74
2022/05/26 06:07:41;;;;;;;3.92;0.98;;;;;;;17.61;51.92;101153.34;4213983;28;20127;-75
2022/05/26 06:09:44;;;;;;;;;;;;;;;17.42;52.20;101156.03;4214177;28;20075;-74
2022/05/26 06:11:49;;;;;;;4.35;1.10;;;;;;;17.44;51.76;101158.66;4214847;28;19920;-74
2022/05/26 06:13:52;;;;;;;1.35;0.70;;;;;;;17.51;52.06;101160.38;4196884;28;20054;-74
2022/05/26 06:15:55;;;;;;;2.05;0.88;;;;;;;17.60;52.46;101159.47;4215001;28;20080;-74
2022/05/26 06:17:58;;;;;;;3.80;0.77;;;;;;;17.67;52.36;101161.22;4213747;28;20131;-74
2022/05/26 06:20:01;;;;;;;2.58;0.98;;;;;;;17.73;52.38;101160.31;4214746;28;20043;-74
2022/05/26 06:22:09;;;;;;;5.15;1.65;;;;;;;17.77;52.18;101160.28;4214436;28;20410;-75
2022/05/26 06:24:13;;;;;;;0.98;0.57;;;;;;;17.82;52.35;101164.66;4214803;28;20574;-74
2022/05/26 06:26:16;;;;;;;3.45;0.90;;;;;;;17.75;52.34;101172.56;4214828;28;20036;-75
2022/05/26 06:30:40;;;;;;;3.38;1.00;;;;;;;17.91;52.18;101167.28;4196895;28;20074;-74
2022/05/26 06:37:38;;;;;;;1.38;0.63;;;;;;;18.07;51.60;101165.44;4214554;28;20040;-74
2022/05/26 06:39:43;;;;;;;1.58;0.90;;;;;;;18.08;51.64;101169.81;4214475;28;20043;-74
2022/05/26 06:44:09;;;;;;;2.10;1.20;;;;;;;18.01;51.96;101182.13;4196458;28;20040;-74
2022/05/26 06:46:12;;;;;;;3.42;1.05;;;;;;;17.95;51.56;101179.53;4213251;28;20102;-74
2022/05/26 06:48:16;;;;;;;2.47;1.08;;;;;;;18.06;51.67;101185.63;4214422;28;20054;-74
2022/05/26 06:50:19;;;;;;;2.38;0.88;;;;;;;18.06;51.76;101183.00;4214409;28;20040;-74
2022/05/26 06:52:24;;;;;;;1.90;0.77;;;;;;;18.01;51.24;101186.53;4212737;28;20059;-74
2022/05/26 06:54:30;;;;;;;1.85;0.90;;;;;;;18.03;51.11;101192.66;4214470;28;20427;-74
2022/05/26 06:56:35;;;;;;;2.78;0.93;;;;;;;18.09;51.33;101190.88;4213034;28;20380;-75
2022/05/26 06:58:38;;;;;;;1.35;0.80;;;;;;;18.09;51.57;101193.50;4213241;28;20043;-75
2022/05/26 07:00:48;;;;;;;1.58;0.70;;;;;;;18.05;51.47;101204.06;4214117;28;20517;-74
2022/05/26 07:02:52;;;;;;;1.75;0.90;;;;;;;18.05;51.21;101193.53;4212603;28;20032;-74
2022/05/26 07:04:55;;;;;;;3.05;0.90;;;;;;;18.01;51.45;101207.56;4212982;28;20063;-74
2022/05/26 07:06:59;;;;;;;6.85;1.42;;;;;;;18.01;51.48;101200.53;4214038;28;20130;-74
2022/05/26 07:09:02;;;;;;;3.10;0.77;;;;;;;18.07;51.42;101204.91;4214196;28;20040;-74
2022/05/26 07:11:05;;;;;;;4.10;0.95;;;;;;;18.08;51.47;101212.78;4213933;28;20060;-74
2022/05/26 07:13:09;;;;;;;3.60;1.15;;;;;;;18.04;51.60;101204.94;4212301;28;20047;-74
2022/05/26 07:15:12;;;;;;;;;;;;;;;17.91;51.84;101206.72;4213166;28;20070;-73
2022/05/26 07:17:21;;;;;;;1.67;0.90;;;;;;;17.93;51.77;101207.59;4214107;28;19920;-75
2022/05/26 07:19:24;;;;;;;2.75;0.93;;;;;;;18.08;51.75;101210.16;4213809;28;20135;-75
2022/05/26 07:21:26;;;;;;;2.63;1.00;;;;;;;18.13;51.88;101213.63;4212503;28;20473;-74
2022/05/26 07:23:29;;;;;;;4.22;1.45;;;;;;;18.09;51.45;101222.44;4212329;28;20522;-75
2022/05/26 07:25:33;;;;;;;2.40;1.00;;;;;;;18.16;51.46;101212.75;4213810;28;20131;-75
2022/05/26 07:27:36;;;;;;;1.42;0.85;;;;;;;18.14;51.20;101210.13;4212714;28;20062;-75
2022/05/26 07:29:40;;;;;;;4.88;1.20;;;;;;;18.09;51.20;101217.19;4213861;28;20466;-75
2022/05/26 07:31:43;;;;;;;2.72;0.90;;;;;;;18.08;51.43;101217.19;4212243;28;20060;-75
2022/05/26 07:33:51;;;;;;;1.27;0.93;;;;;;;18.07;51.26;101218.94;4213869;28;20040;-74
2022/05/26 07:35:54;;;;;;;4.03;1.10;;;;;;;18.19;51.09;101218.00;4213736;28;20036;-75
2022/05/26 07:42:39;;;;;;;1.75;0.68;;;;;;;18.35;50.91;101213.53;4212197;28;20040;-75
2022/05/26 07:44:46;;;;;;;0.63;0.57;;;;;;;18.40;51.24;101229.28;4212528;28;20131;-75
2022/05/26 07:46:49;;;;;;;1.65;0.80;;;;;;;18.45;51.09;101214.34;4212344;28;20055;-75
2022/05/26 07:48:53;;;;;;;1.33;0.80;;;;;;;18.46;50.64;101222.22;4212458;28;20075;-74
2022/05/26 07:50:56;;;;;;;0.80;0.60;;;;;;;18.44;50.47;101220.47;4212379;28;20074;-75
2022/05/26 07:52:59;;;;;;;2.45;0.93;;;;;;;18.48;50.61;101216.94;4213229;28;20073;-75
2022/05/26 07:55:03;;;;;;;1.60;0.77;;;;;;;18.58;50.87;101225.69;4213764;28;20032;-75
2022/05/26 07:57:07;;;;;;;3.10;0.85;;;;;;;18.66;51.12;101218.56;4213640;28;20036;-75
2022/05/26 07:59:11;;;;;;;3.78;0.98;;;;;;;18.84;50.69;101230.75;4213547;28;20044;-75
2022/05/26 08:01:15;;;;;;;2.22;0.80;;;;;;;18.95;50.43;101228.97;4213421;28;20044;-75
2022/05/26 08:03:18;;;;;;;3.75;1.17;;;;;;;18.95;50.63;101230.69;4213187;28;20148;-75
2022/05/26 08:05:21;;;;;;;4.25;1.00;;;;;;;18.84;49.84;101233.41;4213518;28;20044;-75
2022/05/26 08:07:24;;;;;;;3.10;1.20;;;;;;;18.79;50.40;101246.59;4212294;28;20036;-75
2022/05/26 08:09:27;;;;;;;3.15;1.15;;;;;;;18.78;50.37;101236.09;4212324;28;20134;-75
2022/05/26 08:11:30;;;;;;;3.00;0.80;;;;;;;18.79;50.02;101240.44;4212187;28;20074;-75
2022/05/26 08:13:32;;;;;;;2.08;0.80;;;;;;;18.86;49.98;101238.66;4213334;28;20069;-76
2022/05/26 08:15:36;;;;;;;2.58;0.90;;;;;;;18.88;50.62;101244.81;4212218;28;20044;-75
2022/05/26 08:17:40;;;;;;;3.13;0.88;;;;;;;18.92;49.88;101247.41;4213432;28;20047;-75
2022/05/26 08:19:43;;;;;;;2.35;1.00;;;;;;;18.79;49.71;101241.34;4212085;28;20130;-75
2022/05/26 08:21:46;;;;;;;1.35;1.00;;;;;;;18.68;50.11;101248.44;4211807;28;20044;-75
2022/05/26 08:23:49;;;;;;;3.42;0.90;;;;;;;18.73;50.43;101249.25;4215375;28;20040;-75
2022/05/26 08:25:51;;;;;;;3.80;0.88;;;;;;;18.83;50.52;101253.56;4216634;28;20051;-74
2022/05/26 08:27:54;;;;;;;3.65;1.00;;;;;;;18.82;50.46;101251.84;4216627;28;20497;-75
2022/05/26 08:29:59;;;;;;;3.15;0.90;;;;;;;18.82;50.50;101254.47;4216618;28;20448;-75
2022/05/26 08:32:02;;;;;;;3.55;1.00;;;;;;;18.79;50.40;101250.97;4215114;28;20036;-75
2022/05/26 08:34:06;;;;;;;2.55;0.85;;;;;;;18.84;50.21;101262.38;4216663;28;20155;-75
2022/05/26 08:36:10;;;;;;;;;;;;;;;18.74;50.59;101253.66;4216936;28;20044;-75
2022/05/26 08:38:13;;;;;;;2.15;0.90;;;;;;;18.80;50.78;101250.09;4216502;28;19920;-75
2022/05/26 08:40:31;;;;;;;1.85;0.88;;;;;;;18.83;49.88;101258.84;4215197;28;20230;-75
2022/05/26 08:42:36;;;;;;;3.13;0.88;;;;;;;18.81;50.30;101254.50;4214886;28;20139;-75
2022/05/26 08:44:40;;;;;;;4.30;1.13;;;;;;;18.88;49.84;101255.34;4216453;28;20126;-75
2022/05/26 08:46:46;;;;;;;5.17;1.00;;;;;;;18.86;50.15;101259.72;4216413;28;20039;-75
2022/05/26 08:48:57;;;;;;;5.47;0.90;;;;;;;18.82;50.49;101261.50;4216387;28;20055;-75
2022/05/26 08:51:04;;;;;;;2.13;1.05;;;;;;;18.82;50.64;101265.03;4216162;28;20067;-75
2022/05/26 08:53:11;;;;;;;4.03;1.02;;;;;;;18.75;50.56;101259.78;4215930;28;20067;-75
2022/05/26 08:55:19;;;;;;;5.07;1.00;;;;;;;18.87;50.40;101265.03;4216332;28;20047;-75
2022/05/26 08:57:26;;;;;;;1.42;0.80;;;;;;;18.94;50.63;101273.72;4214968;28;20043;-75
2022/05/26 08:59:46;;;;;;;3.03;1.08;;;;;;;19.04;50.65;101264.91;4216159;28;20052;-75
2022/05/26 09:01:50;;;;;;;2.58;1.00;;;;;;;19.11;50.08;101269.22;4214590;28;20419;-75
2022/05/26 09:03:53;;;;;;;0.93;0.63;;;;;;;19.22;49.88;101271.78;4214867;28;20127;-74
2022/05/26 09:06:03;;;;;;;3.22;0.80;;;;;;;19.24;49.97;101272.63;4215978;28;20043;-75
2022/05/26 09:12:59;;;;;;;0.75;0.50;;;;;;;19.27;49.80;101271.72;4214414;28;20123;-75
2022/05/26 09:15:04;;;;;;;6.37;1.37;;;;;;;19.35;49.97;101273.41;4215955;28;20117;-75
2022/05/26 09:17:10;;;;;;;2.17;0.90;;;;;;;19.27;49.87;101283.13;4216153;28;20067;-75
2022/05/26 09:19:16;;;;;;;2.60;1.00;;;;;;;19.21;49.55;101277.91;4215846;28;20036;-75
2022/05/26 09:21:24;;;;;;;2.92;0.93;;;;;;;19.13;49.46;101278.00;4215934;28;20038;-75
2022/05/26 09:23:31;;;;;;;3.35;1.10;;;;;;;19.16;49.37;101285.88;4215526;28;20040;-74
2022/05/26 09:25:38;;;;;;;2.92;1.02;;;;;;;19.19;49.45;101277.06;4197745;28;20495;-75
2022/05/26 09:27:51;;;;;;;1.23;0.80;;;;;;;19.23;49.82;101283.19;4215769;28;20043;-75
2022/05/26 09:29:55;;;;;;;3.83;1.13;;;;;;;19.07;50.46;101290.34;4215636;28;20414;-75
2022/05/26 09:32:00;;;;;;;2.53;0.73;;;;;;;18.98;51.13;101288.63;4215300;28;20526;-75
2022/05/26 09:34:25;;;;;;;3.53;1.20;;;;;;;18.96;51.96;101295.69;4215685;28;20040;-75
2022/05/26 09:36:31;;;;;;;2.53;0.90;;;;;;;18.98;51.67;101294.81;4214340;28;20055;-75
2022/05/26 09:38:34;;;;;;;1.88;1.13;;;;;;;18.96;51.24;101290.44;4214511;28;20040;-75
2022/05/26 09:40:40;;;;;;;1.38;0.80;;;;;;;19.09;50.58;101281.53;4214265;28;20040;-75
2022/05/26 09:42:45;;;;;;;1.40;0.73;;;;;;;19.19;50.10;101285.84;4215293;28;20048;-75
2022/05/26 09:44:53;;;;;;;1.90;0.80;;;;;;;19.34;49.93;101289.25;4214196;28;20036;-75
2022/05/26 09:46:58;;;;;;;3.22;0.80;;;;;;;19.49;49.65;101291.75;4215433;28;20040;-75
2022/05/26 09:49:11;;;;;;;3.22;1.13;;;;;;;19.62;49.18;101288.97;4215386;28;20044;-76
2022/05/26 09:51:23;;;;;;;1.67;0.93;;;;;;;19.71;49.38;101286.22;4213930;28;20473;-75
2022/05/26 09:53:33;;;;;;;2.10;1.00;;;;;;;19.73;49.02;101295.03;4214999;28;20405;-75
2022/05/26 09:55:42;;;;;;;1.98;0.90;;;;;;;19.71;49.16;101292.41;4215428;28;20148;-76
2022/05/26 09:58:08;;;;;;;2.10;0.77;;;;;;;19.61;48.92;101289.84;4215181;28;20039;-75
2022/05/26 10:00:17;;;;;;;2.35;1.10;;;;;;;19.62;48.27;101288.97;4213991;28;20135;-74
2022/05/26 10:02:27;;;;;;;1.80;0.90;;;;;;;19.70;48.90;101298.56;4213545;28;20040;-75
2022/05/26 10:04:46;;;;;;;2.10;0.95;;;;;;;19.78;48.62;101298.50;4215050;28;20101;-75
2022/05/26 10:06:58;;;;;;;2.88;1.45;;;;;;;19.76;48.40;101300.28;4213829;28;20063;-74
2022/05/26 10:09:19;;;;;;;3.65;1.15;;;;;;;19.60;47.81;101296.91;4215204;28;20050;-74
2022/05/26 10:11:36;;;;;;;2.83;1.10;;;;;;;19.63;48.10;101303.94;4214887;28;20032;-75
2022/05/26 10:13:57;;;;;;;2.33;1.00;;;;;;;19.64;47.82;101297.75;4214984;28;20128;-74
2022/05/26 10:16:11;;;;;;;2.10;0.77;;;;;;;19.68;47.34;101296.81;4214976;28;20471;-75